sensor_id;sensor_type;location;lat;lon;timestamp;temperature;humidity
16134;DHT22;8172;45.018;5.972;2022-12-07T00:03:19;0.20;67.60
16134;DHT22;8172;45.018;5.972;2022-12-07T00:08:26;0.20;67.50
16134;DHT22;8172;45.018;5.972;2022-12-07T00:13:33;0.20;67.50
16134;DHT22;8172;45.018;5.972;2022-12-07T00:18:42;0.20;67.40
16134;DHT22;8172;45.018;5.972;2022-12-07T00:23:51;0.20;67.40
16134;DHT22;8172;45.018;5.972;2022-12-07T00:29:03;0.10;67.40
16134;DHT22;8172;45.018;5.972;2022-12-07T00:34:13;0.10;67.50
16134;DHT22;8172;45.018;5.972;2022-12-07T00:39:19;0.10;67.50
16134;DHT22;8172;45.018;5.972;2022-12-07T00:44:26;0.10;67.40
16134;DHT22;8172;45.018;5.972;2022-12-07T00:49:33;0.10;67.30
16134;DHT22;8172;45.018;5.972;2022-12-07T00:54:40;0.10;67.20
16134;DHT22;8172;45.018;5.972;2022-12-07T00:59:48;0.10;67.10
16134;DHT22;8172;45.018;5.972;2022-12-07T01:04:55;0.00;67.00
16134;DHT22;8172;45.018;5.972;2022-12-07T01:10:02;0.00;66.90
16134;DHT22;8172;45.018;5.972;2022-12-07T01:15:09;-0.10;67.10
16134;DHT22;8172;45.018;5.972;2022-12-07T01:20:16;-0.10;67.20
16134;DHT22;8172;45.018;5.972;2022-12-07T01:25:23;-0.10;67.30
16134;DHT22;8172;45.018;5.972;2022-12-07T01:30:30;-0.20;67.40
16134;DHT22;8172;45.018;5.972;2022-12-07T01:35:38;-0.20;67.30
16134;DHT22;8172;45.018;5.972;2022-12-07T01:40:45;-0.20;67.30
16134;DHT22;8172;45.018;5.972;2022-12-07T01:45:55;-0.20;67.30
16134;DHT22;8172;45.018;5.972;2022-12-07T01:51:06;-0.30;67.30
16134;DHT22;8172;45.018;5.972;2022-12-07T01:56:15;-0.30;67.30
16134;DHT22;8172;45.018;5.972;2022-12-07T02:01:22;-0.30;67.20
16134;DHT22;8172;45.018;5.972;2022-12-07T02:06:29;-0.30;67.20
16134;DHT22;8172;45.018;5.972;2022-12-07T02:11:36;-0.30;67.20
16134;DHT22;8172;45.018;5.972;2022-12-07T02:16:51;-0.30;67.10
16134;DHT22;8172;45.018;5.972;2022-12-07T02:32:16;-0.40;67.10
16134;DHT22;8172;45.018;5.972;2022-12-07T02:42:36;-0.50;67.10
16134;DHT22;8172;45.018;5.972;2022-12-07T02:47:44;-0.50;67.10
16134;DHT22;8172;45.018;5.972;2022-12-07T02:52:52;-0.50;67.10
16134;DHT22;8172;45.018;5.972;2022-12-07T03:03:10;-0.50;67.20
16134;DHT22;8172;45.018;5.972;2022-12-07T03:13:33;-0.60;67.20
16134;DHT22;8172;45.018;5.972;2022-12-07T03:18:39;-0.60;67.20
16134;DHT22;8172;45.018;5.972;2022-12-07T03:23:49;-0.60;67.20
16134;DHT22;8172;45.018;5.972;2022-12-07T03:28:59;-0.70;67.10
16134;DHT22;8172;45.018;5.972;2022-12-07T03:34:11;-0.70;67.20
16134;DHT22;8172;45.018;5.972;2022-12-07T03:44:27;-0.70;67.30
16134;DHT22;8172;45.018;5.972;2022-12-07T03:49:37;-0.70;67.20
16134;DHT22;8172;45.018;5.972;2022-12-07T03:54:48;-0.80;67.20
16134;DHT22;8172;45.018;5.972;2022-12-07T03:59:55;-0.80;67.10
16134;DHT22;8172;45.018;5.972;2022-12-07T04:05:04;-0.90;67.00
16134;DHT22;8172;45.018;5.972;2022-12-07T04:10:11;-0.90;67.00
16134;DHT22;8172;45.018;5.972;2022-12-07T04:15:18;-1.00;67.10
16134;DHT22;8172;45.018;5.972;2022-12-07T04:20:25;-1.00;67.10
16134;DHT22;8172;45.018;5.972;2022-12-07T04:25:32;-1.10;67.10
16134;DHT22;8172;45.018;5.972;2022-12-07T04:30:39;-1.10;67.40
16134;DHT22;8172;45.018;5.972;2022-12-07T04:35:46;-1.10;67.70
16134;DHT22;8172;45.018;5.972;2022-12-07T04:40:53;-1.10;67.80
16134;DHT22;8172;45.018;5.972;2022-12-07T04:46:00;-1.10;67.80
16134;DHT22;8172;45.018;5.972;2022-12-07T04:51:07;-1.10;67.80
16134;DHT22;8172;45.018;5.972;2022-12-07T04:56:15;-1.10;67.80
16134;DHT22;8172;45.018;5.972;2022-12-07T05:01:23;-1.00;67.80
16134;DHT22;8172;45.018;5.972;2022-12-07T05:06:30;-1.00;67.60
16134;DHT22;8172;45.018;5.972;2022-12-07T05:11:38;-1.10;67.40
16134;DHT22;8172;45.018;5.972;2022-12-07T05:16:47;-1.10;67.30
16134;DHT22;8172;45.018;5.972;2022-12-07T05:21:55;-1.20;67.20
16134;DHT22;8172;45.018;5.972;2022-12-07T05:27:02;-1.20;67.20
16134;DHT22;8172;45.018;5.972;2022-12-07T05:32:09;-1.30;67.20
16134;DHT22;8172;45.018;5.972;2022-12-07T05:37:16;-1.30;67.40
16134;DHT22;8172;45.018;5.972;2022-12-07T05:42:23;-1.40;67.50
16134;DHT22;8172;45.018;5.972;2022-12-07T05:47:30;-1.40;67.60
16134;DHT22;8172;45.018;5.972;2022-12-07T05:52:37;-1.40;67.70
16134;DHT22;8172;45.018;5.972;2022-12-07T05:57:44;-1.40;67.70
16134;DHT22;8172;45.018;5.972;2022-12-07T06:02:52;-1.40;67.70
16134;DHT22;8172;45.018;5.972;2022-12-07T06:08:00;-1.40;67.70
16134;DHT22;8172;45.018;5.972;2022-12-07T06:13:09;-1.40;67.70
16134;DHT22;8172;45.018;5.972;2022-12-07T06:18:16;-1.40;67.90
16134;DHT22;8172;45.018;5.972;2022-12-07T06:23:26;-1.40;68.00
16134;DHT22;8172;45.018;5.972;2022-12-07T06:28:33;-1.40;68.00
16134;DHT22;8172;45.018;5.972;2022-12-07T06:33:41;-1.40;68.10
16134;DHT22;8172;45.018;5.972;2022-12-07T06:38:48;-1.40;68.00
16134;DHT22;8172;45.018;5.972;2022-12-07T06:43:55;-1.40;68.00
16134;DHT22;8172;45.018;5.972;2022-12-07T06:49:04;-1.40;68.10
16134;DHT22;8172;45.018;5.972;2022-12-07T06:54:12;-1.40;68.10
16134;DHT22;8172;45.018;5.972;2022-12-07T06:59:20;-1.40;68.10
16134;DHT22;8172;45.018;5.972;2022-12-07T07:04:27;-1.50;68.20
16134;DHT22;8172;45.018;5.972;2022-12-07T07:09:34;-1.40;68.20
16134;DHT22;8172;45.018;5.972;2022-12-07T07:14:41;-1.40;68.10
16134;DHT22;8172;45.018;5.972;2022-12-07T07:19:49;-1.40;68.30
16134;DHT22;8172;45.018;5.972;2022-12-07T07:24:56;-1.50;68.20
16134;DHT22;8172;45.018;5.972;2022-12-07T07:30:03;-1.50;68.50
16134;DHT22;8172;45.018;5.972;2022-12-07T07:35:10;-1.50;68.60
16134;DHT22;8172;45.018;5.972;2022-12-07T07:40:19;-1.50;68.50
16134;DHT22;8172;45.018;5.972;2022-12-07T07:45:27;-1.50;68.20
16134;DHT22;8172;45.018;5.972;2022-12-07T07:50:34;-1.60;68.30
16134;DHT22;8172;45.018;5.972;2022-12-07T07:55:41;-1.60;68.60
16134;DHT22;8172;45.018;5.972;2022-12-07T08:00:48;-1.60;68.60
16134;DHT22;8172;45.018;5.972;2022-12-07T08:05:55;-1.50;68.60
16134;DHT22;8172;45.018;5.972;2022-12-07T08:11:07;-1.50;68.70
16134;DHT22;8172;45.018;5.972;2022-12-07T08:16:12;-1.50;68.60
16134;DHT22;8172;45.018;5.972;2022-12-07T08:21:22;-1.40;68.60
16134;DHT22;8172;45.018;5.972;2022-12-07T08:26:29;-1.40;68.50
16134;DHT22;8172;45.018;5.972;2022-12-07T08:31:36;-1.40;68.40
16134;DHT22;8172;45.018;5.972;2022-12-07T08:36:43;-1.40;68.30
16134;DHT22;8172;45.018;5.972;2022-12-07T08:41:49;-1.30;68.40
16134;DHT22;8172;45.018;5.972;2022-12-07T08:46:58;-1.30;68.20
16134;DHT22;8172;45.018;5.972;2022-12-07T08:52:06;-1.30;68.20
16134;DHT22;8172;45.018;5.972;2022-12-07T08:57:14;-1.30;68.20
16134;DHT22;8172;45.018;5.972;2022-12-07T09:02:21;-1.20;68.10
16134;DHT22;8172;45.018;5.972;2022-12-07T09:07:28;-1.20;68.10
16134;DHT22;8172;45.018;5.972;2022-12-07T09:12:36;-1.20;68.20
16134;DHT22;8172;45.018;5.972;2022-12-07T09:17:43;-1.10;68.30
16134;DHT22;8172;45.018;5.972;2022-12-07T09:22:50;-1.10;68.30
16134;DHT22;8172;45.018;5.972;2022-12-07T09:27:58;-1.00;68.30
16134;DHT22;8172;45.018;5.972;2022-12-07T09:33:05;-1.00;68.30
16134;DHT22;8172;45.018;5.972;2022-12-07T09:38:12;-0.90;68.40
16134;DHT22;8172;45.018;5.972;2022-12-07T09:43:22;-0.80;68.60
16134;DHT22;8172;45.018;5.972;2022-12-07T09:48:32;-0.80;68.60
16134;DHT22;8172;45.018;5.972;2022-12-07T09:53:40;-0.70;68.60
16134;DHT22;8172;45.018;5.972;2022-12-07T09:58:49;-0.60;68.70
16134;DHT22;8172;45.018;5.972;2022-12-07T10:09:09;-0.30;68.80
16134;DHT22;8172;45.018;5.972;2022-12-07T10:14:16;-0.20;68.80
16134;DHT22;8172;45.018;5.972;2022-12-07T10:19:28;0.00;68.70
16134;DHT22;8172;45.018;5.972;2022-12-07T10:24:33;0.10;68.40
16134;DHT22;8172;45.018;5.972;2022-12-07T10:29:42;0.20;68.40
16134;DHT22;8172;45.018;5.972;2022-12-07T10:34:50;0.30;68.00
16134;DHT22;8172;45.018;5.972;2022-12-07T10:39:58;0.30;68.20
16134;DHT22;8172;45.018;5.972;2022-12-07T10:45:09;0.50;68.10
16134;DHT22;8172;45.018;5.972;2022-12-07T10:50:25;0.60;68.00
16134;DHT22;8172;45.018;5.972;2022-12-07T11:06:53;0.80;67.70
16134;DHT22;8172;45.018;5.972;2022-12-07T11:10:59;0.70;67.60
16134;DHT22;8172;45.018;5.972;2022-12-07T11:21:24;0.60;67.70
16134;DHT22;8172;45.018;5.972;2022-12-07T11:31:37;0.60;67.90
16134;DHT22;8172;45.018;5.972;2022-12-07T11:36:47;0.50;68.00
16134;DHT22;8172;45.018;5.972;2022-12-07T11:41:57;0.20;68.00
16134;DHT22;8172;45.018;5.972;2022-12-07T11:47:07;-0.10;68.40
16134;DHT22;8172;45.018;5.972;2022-12-07T11:57:33;-0.40;69.40
16134;DHT22;8172;45.018;5.972;2022-12-07T12:02:37;-0.50;70.00
16134;DHT22;8172;45.018;5.972;2022-12-07T12:07:46;-0.50;70.30
16134;DHT22;8172;45.018;5.972;2022-12-07T12:13:01;-0.60;70.60
16134;DHT22;8172;45.018;5.972;2022-12-07T12:23:22;-0.70;70.90
16134;DHT22;8172;45.018;5.972;2022-12-07T12:28:38;-0.70;71.30
16134;DHT22;8172;45.018;5.972;2022-12-07T12:33:37;-0.70;71.50
16134;DHT22;8172;45.018;5.972;2022-12-07T12:43:55;-0.70;71.70
16134;DHT22;8172;45.018;5.972;2022-12-07T12:54:20;-0.60;71.90
16134;DHT22;8172;45.018;5.972;2022-12-07T12:59:22;-0.70;72.00
16134;DHT22;8172;45.018;5.972;2022-12-07T13:04:38;-0.70;72.20
16134;DHT22;8172;45.018;5.972;2022-12-07T13:09:42;-0.70;72.40
16134;DHT22;8172;45.018;5.972;2022-12-07T13:14:53;-0.70;72.40
16134;DHT22;8172;45.018;5.972;2022-12-07T13:20:01;-0.70;72.40
16134;DHT22;8172;45.018;5.972;2022-12-07T13:25:11;-0.60;72.40
16134;DHT22;8172;45.018;5.972;2022-12-07T13:30:19;-0.50;72.50
16134;DHT22;8172;45.018;5.972;2022-12-07T13:40:36;-0.40;72.70
16134;DHT22;8172;45.018;5.972;2022-12-07T13:45:43;-0.30;72.60
16134;DHT22;8172;45.018;5.972;2022-12-07T13:50:54;-0.20;72.60
16134;DHT22;8172;45.018;5.972;2022-12-07T13:56:01;-0.10;72.50
16134;DHT22;8172;45.018;5.972;2022-12-07T14:01:09;-0.10;72.40
16134;DHT22;8172;45.018;5.972;2022-12-07T14:06:20;-0.10;72.40
16134;DHT22;8172;45.018;5.972;2022-12-07T14:11:27;-0.10;72.50
16134;DHT22;8172;45.018;5.972;2022-12-07T14:16:36;-0.10;72.60
16134;DHT22;8172;45.018;5.972;2022-12-07T14:21:45;-0.10;72.40
16134;DHT22;8172;45.018;5.972;2022-12-07T14:26:52;-0.10;72.20
16134;DHT22;8172;45.018;5.972;2022-12-07T14:32:11;-0.20;72.20
16134;DHT22;8172;45.018;5.972;2022-12-07T14:37:10;-0.30;72.30
16134;DHT22;8172;45.018;5.972;2022-12-07T14:42:17;-0.40;72.40
16134;DHT22;8172;45.018;5.972;2022-12-07T14:47:26;-0.40;72.60
16134;DHT22;8172;45.018;5.972;2022-12-07T14:52:34;-0.50;72.90
16134;DHT22;8172;45.018;5.972;2022-12-07T14:57:43;-0.50;73.00
16134;DHT22;8172;45.018;5.972;2022-12-07T15:02:51;-0.40;73.10
16134;DHT22;8172;45.018;5.972;2022-12-07T15:07:59;-0.40;72.90
16134;DHT22;8172;45.018;5.972;2022-12-07T15:13:07;-0.40;72.90
16134;DHT22;8172;45.018;5.972;2022-12-07T15:18:16;-0.40;72.90
16134;DHT22;8172;45.018;5.972;2022-12-07T15:23:23;-0.50;72.90
16134;DHT22;8172;45.018;5.972;2022-12-07T15:28:30;-0.60;73.00
16134;DHT22;8172;45.018;5.972;2022-12-07T15:33:37;-0.70;73.30
16134;DHT22;8172;45.018;5.972;2022-12-07T15:38:44;-0.80;73.30
16134;DHT22;8172;45.018;5.972;2022-12-07T15:43:52;-0.80;73.40
16134;DHT22;8172;45.018;5.972;2022-12-07T15:49:01;-0.80;73.60
16134;DHT22;8172;45.018;5.972;2022-12-07T15:54:12;-0.90;73.60
16134;DHT22;8172;45.018;5.972;2022-12-07T15:59:18;-1.00;73.70
16134;DHT22;8172;45.018;5.972;2022-12-07T16:04:27;-0.90;73.80
16134;DHT22;8172;45.018;5.972;2022-12-07T16:09:35;-0.90;73.80
16134;DHT22;8172;45.018;5.972;2022-12-07T16:14:42;-1.00;73.80
16134;DHT22;8172;45.018;5.972;2022-12-07T16:19:49;-1.00;73.80
16134;DHT22;8172;45.018;5.972;2022-12-07T16:24:56;-1.00;73.80
16134;DHT22;8172;45.018;5.972;2022-12-07T16:30:03;-0.90;73.70
16134;DHT22;8172;45.018;5.972;2022-12-07T16:35:11;-0.90;73.60
16134;DHT22;8172;45.018;5.972;2022-12-07T16:40:18;-0.90;73.50
16134;DHT22;8172;45.018;5.972;2022-12-07T16:45:25;-0.90;73.40
16134;DHT22;8172;45.018;5.972;2022-12-07T16:50:33;-0.90;73.40
16134;DHT22;8172;45.018;5.972;2022-12-07T16:55:41;-0.90;73.50
16134;DHT22;8172;45.018;5.972;2022-12-07T17:00:48;-1.00;73.50
16134;DHT22;8172;45.018;5.972;2022-12-07T17:05:55;-1.00;73.50
16134;DHT22;8172;45.018;5.972;2022-12-07T17:11:09;-1.00;73.50
16134;DHT22;8172;45.018;5.972;2022-12-07T17:16:12;-1.00;73.50
16134;DHT22;8172;45.018;5.972;2022-12-07T17:21:20;-1.10;73.50
16134;DHT22;8172;45.018;5.972;2022-12-07T17:26:27;-1.10;73.50
16134;DHT22;8172;45.018;5.972;2022-12-07T17:31:36;-1.10;73.40
16134;DHT22;8172;45.018;5.972;2022-12-07T17:36:44;-1.20;73.30
16134;DHT22;8172;45.018;5.972;2022-12-07T17:41:51;-1.20;73.50
16134;DHT22;8172;45.018;5.972;2022-12-07T17:46:59;-1.40;73.60
16134;DHT22;8172;45.018;5.972;2022-12-07T17:52:09;-1.50;73.80
16134;DHT22;8172;45.018;5.972;2022-12-07T17:57:17;-1.60;74.20
16134;DHT22;8172;45.018;5.972;2022-12-07T18:02:24;-1.60;74.20
16134;DHT22;8172;45.018;5.972;2022-12-07T18:07:31;-1.70;74.40
16134;DHT22;8172;45.018;5.972;2022-12-07T18:12:39;-1.60;74.40
16134;DHT22;8172;45.018;5.972;2022-12-07T18:17:45;-1.60;74.30
16134;DHT22;8172;45.018;5.972;2022-12-07T18:22:54;-1.50;74.30
16134;DHT22;8172;45.018;5.972;2022-12-07T18:28:00;-1.50;74.20
16134;DHT22;8172;45.018;5.972;2022-12-07T18:33:07;-1.50;74.10
16134;DHT22;8172;45.018;5.972;2022-12-07T18:38:15;-1.60;74.10
16134;DHT22;8172;45.018;5.972;2022-12-07T18:43:23;-1.50;74.10
16134;DHT22;8172;45.018;5.972;2022-12-07T18:48:30;-1.50;74.00
16134;DHT22;8172;45.018;5.972;2022-12-07T18:53:37;-1.40;74.00
16134;DHT22;8172;45.018;5.972;2022-12-07T18:58:49;-1.40;74.00
16134;DHT22;8172;45.018;5.972;2022-12-07T19:03:58;-1.30;73.80
16134;DHT22;8172;45.018;5.972;2022-12-07T19:09:06;-1.30;73.60
16134;DHT22;8172;45.018;5.972;2022-12-07T19:14:15;-1.40;73.60
16134;DHT22;8172;45.018;5.972;2022-12-07T19:19:27;-1.40;73.60
16134;DHT22;8172;45.018;5.972;2022-12-07T19:24:32;-1.40;73.60
16134;DHT22;8172;45.018;5.972;2022-12-07T19:29:41;-1.40;73.60
16134;DHT22;8172;45.018;5.972;2022-12-07T19:34:48;-1.40;73.60
16134;DHT22;8172;45.018;5.972;2022-12-07T19:39:56;-1.40;73.60
16134;DHT22;8172;45.018;5.972;2022-12-07T19:45:03;-1.40;73.50
16134;DHT22;8172;45.018;5.972;2022-12-07T19:50:11;-1.40;73.50
16134;DHT22;8172;45.018;5.972;2022-12-07T19:55:18;-1.50;73.50
16134;DHT22;8172;45.018;5.972;2022-12-07T20:00:25;-1.50;73.40
16134;DHT22;8172;45.018;5.972;2022-12-07T20:05:33;-1.50;73.40
16134;DHT22;8172;45.018;5.972;2022-12-07T20:10:41;-1.40;73.30
16134;DHT22;8172;45.018;5.972;2022-12-07T20:15:48;-1.50;73.30
16134;DHT22;8172;45.018;5.972;2022-12-07T20:20:57;-1.50;73.20
16134;DHT22;8172;45.018;5.972;2022-12-07T20:26:08;-1.50;73.30
16134;DHT22;8172;45.018;5.972;2022-12-07T20:31:15;-1.50;73.20
16134;DHT22;8172;45.018;5.972;2022-12-07T20:36:22;-1.60;73.00
16134;DHT22;8172;45.018;5.972;2022-12-07T20:41:31;-1.60;72.70
16134;DHT22;8172;45.018;5.972;2022-12-07T20:46:40;-1.70;72.10
16134;DHT22;8172;45.018;5.972;2022-12-07T20:51:47;-1.70;71.60
16134;DHT22;8172;45.018;5.972;2022-12-07T20:56:55;-1.80;71.20
16134;DHT22;8172;45.018;5.972;2022-12-07T21:02:02;-1.90;70.80
16134;DHT22;8172;45.018;5.972;2022-12-07T21:07:09;-2.00;70.70
16134;DHT22;8172;45.018;5.972;2022-12-07T21:12:17;-2.10;70.80
16134;DHT22;8172;45.018;5.972;2022-12-07T21:17:24;-2.10;70.80
16134;DHT22;8172;45.018;5.972;2022-12-07T21:22:31;-2.20;70.70
16134;DHT22;8172;45.018;5.972;2022-12-07T21:27:38;-2.20;70.70
16134;DHT22;8172;45.018;5.972;2022-12-07T21:32:45;-2.20;70.50
16134;DHT22;8172;45.018;5.972;2022-12-07T21:37:52;-2.20;70.40
16134;DHT22;8172;45.018;5.972;2022-12-07T21:42:59;-2.20;70.50
16134;DHT22;8172;45.018;5.972;2022-12-07T21:48:08;-2.20;70.80
16134;DHT22;8172;45.018;5.972;2022-12-07T21:53:15;-2.20;70.90
16134;DHT22;8172;45.018;5.972;2022-12-07T21:58:22;-2.20;71.00
16134;DHT22;8172;45.018;5.972;2022-12-07T22:03:29;-2.20;71.20
16134;DHT22;8172;45.018;5.972;2022-12-07T22:08:36;-2.20;71.30
16134;DHT22;8172;45.018;5.972;2022-12-07T22:13:44;-2.10;71.40
16134;DHT22;8172;45.018;5.972;2022-12-07T22:18:53;-2.10;71.40
16134;DHT22;8172;45.018;5.972;2022-12-07T22:24:03;-2.00;71.40
16134;DHT22;8172;45.018;5.972;2022-12-07T22:29:11;-2.00;71.50
16134;DHT22;8172;45.018;5.972;2022-12-07T22:34:18;-2.00;71.60
16134;DHT22;8172;45.018;5.972;2022-12-07T22:39:26;-2.00;71.60
16134;DHT22;8172;45.018;5.972;2022-12-07T22:44:33;-2.00;71.70
16134;DHT22;8172;45.018;5.972;2022-12-07T22:49:40;-2.00;71.80
16134;DHT22;8172;45.018;5.972;2022-12-07T22:54:47;-1.90;71.90
16134;DHT22;8172;45.018;5.972;2022-12-07T22:59:54;-1.90;71.90
16134;DHT22;8172;45.018;5.972;2022-12-07T23:05:01;-1.90;72.00
16134;DHT22;8172;45.018;5.972;2022-12-07T23:10:09;-1.90;72.00
16134;DHT22;8172;45.018;5.972;2022-12-07T23:15:16;-1.90;72.10
16134;DHT22;8172;45.018;5.972;2022-12-07T23:20:23;-1.80;72.00
16134;DHT22;8172;45.018;5.972;2022-12-07T23:25:32;-1.80;72.00
16134;DHT22;8172;45.018;5.972;2022-12-07T23:30:39;-1.80;72.00
16134;DHT22;8172;45.018;5.972;2022-12-07T23:35:46;-1.80;72.00
16134;DHT22;8172;45.018;5.972;2022-12-07T23:40:52;-1.80;71.80
16134;DHT22;8172;45.018;5.972;2022-12-07T23:45:59;-1.80;71.80
16134;DHT22;8172;45.018;5.972;2022-12-07T23:51:08;-1.70;71.80
16134;DHT22;8172;45.018;5.972;2022-12-07T23:56:18;-1.70;71.70
